NCAR-RAP Real-Time Weather Data

Output produced by METARs form (23 February 2020  02:19 UTC)
found at http://weather.rap.ucar.edu/surface/
 
KIND 230154Z 19006KT 10SM FEW140 SCT250 03/M08 A3023 RMK AO2 SLP246 T00281083
KIND 230054Z 21005KT 10SM FEW140 SCT250 03/M09 A3022 RMK AO2 SLP243 T00281094
KIND 222354Z 22006KT 10SM FEW140 SCT250 02/M09 A3022 RMK AO2 SLP243 T00221089 10094 20022 56013
KIND 222254Z 23009KT 10SM FEW250 07/M09 A3023 RMK AO2 SLP244 T00671094
KIND 222154Z 23013KT 10SM FEW250 08/M10 A3024 RMK AO2 SLP248 T00831100
KIND 222054Z 23015KT 10SM CLR 09/M11 A3026 RMK AO2 SLP254 T00891111 56023
KIND 221954Z 23013KT 10SM CLR 09/M11 A3027 RMK AO2 SLP258 T00891106
KIND 221854Z 22014KT 10SM CLR 08/M10 A3030 RMK AO2 SLP267 T00831100
KIND 221754Z 23014KT 10SM CLR 07/M10 A3033 RMK AO2 SLP277 T00721100 10072 21067 58019
KIND 221654Z 22012KT 10SM CLR 06/M09 A3036 RMK AO2 SLP287 T00561094
KIND 221554Z 22010KT 10SM CLR 03/M08 A3036 RMK AO2 SLP290 T00331083
KIND 221454Z 23011KT 10SM CLR 01/M08 A3039 RMK AO2 SLP299 T00111083 58001
KIND 221354Z 22009KT 10SM CLR M02/M08 A3040 RMK AO2 SLP303 T10221083
KIND 221254Z 21006KT 10SM CLR M06/M10 A3039 RMK AO2 SLP303 T10611100
KIND 221154Z 20006KT 10SM CLR M06/M10 A3039 RMK AO2 SLP302 T10561100 11050 21061 53002
KIND 221054Z 20007KT 10SM CLR M06/M10 A3039 RMK AO2 SLP301 T10611100
KIND 220954Z 24006KT 10SM CLR M06/M11 A3038 RMK AO2 SLP298 T10561106
KIND 220854Z 22009KT 10SM CLR M06/M11 A3039 RMK AO2 SLP299 T10561106 58009
KIND 220754Z 22008KT 10SM CLR M05/M11 A3040 RMK AO2 SLP304 T10501111
KIND 220654Z 22008KT 10SM SCT250 M05/M11 A3040 RMK AO2 SLP306 T10501111
KIND 220554Z 22008KT 10SM SCT250 M05/M12 A3041 RMK AO2 SLP309 T10501117 11017 21050 56014
KIND 220454Z 22008KT 10SM SCT250 M04/M12 A3042 RMK AO2 SLP311 T10391117 400221106
KIND 220354Z 23008KT 10SM SCT250 M03/M12 A3045 RMK AO2 SLP322 T10331117
KIND 220254Z 22007KT 10SM CLR M04/M12 A3046 RMK AO2 SLP326 T10391117 58012
KIND 220154Z 22008KT 10SM CLR M03/M12 A3047 RMK AO2 SLP330 T10331122
KIND 220054Z 22009KT 10SM CLR M02/M12 A3049 RMK AO2 SLP336 T10221122
KIND 212354Z 22008KT 10SM FEW250 M02/M13 A3049 RMK AO2 SLP338 T10171133 10022 21017 56015
KIND 212254Z 24010KT 10SM CLR 01/M13 A3051 RMK AO2 SLP342 T00111133
KIND 212154Z 22011G17KT 10SM CLR 02/M14 A3052 RMK AO2 SLP344 T00221144
KIND 212054Z 24008KT 210V280 10SM CLR 02/M15 A3054 RMK AO2 SLP352 T00171150 56035
KIND 211954Z 23007KT 190V260 10SM CLR 01/M14 A3057 RMK AO2 PRESFR SLP362 T00061144
KIND 211854Z 24009KT 10SM CLR 00/M16 A3061 RMK AO2 SLP376 T00001156
KIND 211754Z 28005KT 10SM CLR M01/M16 A3064 RMK AO2 SLP389 T10111156 11011 21100 58008
KIND 211654Z 26006KT 10SM CLR M02/M14 A3066 RMK AO2 SLP395 T10221144
KIND 211554Z VRB05KT 10SM CLR M04/M15 A3067 RMK AO2 SLP397 T10441150
KIND 211454Z VRB04KT 10SM CLR M06/M12 A3067 RMK AO2 SLP398 T10611122 53012
KIND 211354Z 26004KT 10SM CLR M08/M12 A3066 RMK AO2 SLP394 T10781117
KIND 211254Z 25005KT 10SM CLR M10/M12 A3063 RMK AO2 SLP385 T11001122
KIND 211154Z 30004KT 10SM CLR M09/M12 A3063 RMK AO2 SLP386 T10941117 11078 21106 55000
KIND 211054Z 28003KT 10SM CLR M10/M12 A3062 RMK AO2 SLP380 T11001117
KIND 210954Z 29003KT 10SM CLR M09/M12 A3061 RMK AO2 SLP378 T10891117
KIND 210854Z 30004KT 10SM CLR M09/M12 A3064 RMK AO2 SLP387 T10941117 56004
KIND 210754Z 33006KT 10SM CLR M09/M12 A3064 RMK AO2 SLP387 T10891117
KIND 210654Z 33004KT 10SM CLR M08/M11 A3064 RMK AO2 SLP387 T10831111
KIND 210554Z 35005KT 10SM CLR M08/M11 A3065 RMK AO2 SLP391 T10781111 11033 21078 51006
KIND 210454Z 35005KT 10SM CLR M07/M11 A3064 RMK AO2 SLP388 T10721106 400001072
KIND 210354Z 34009KT 10SM CLR M06/M11 A3065 RMK AO2 SLP390 T10611106
KIND 210254Z 34010KT 10SM FEW040 M06/M11 A3063 RMK AO2 SLP384 T10561106 51012